createdAt,value
2017-11-27T00:00:27.339Z,73.02
2017-11-27T00:01:08.007Z,72.83
2017-11-27T00:01:48.420Z,72.35
2017-11-27T00:02:28.782Z,72.35
2017-11-27T00:03:09.231Z,72.64
2017-11-27T00:03:49.734Z,73.21
2017-11-27T00:04:31.592Z,71.78
2017-11-27T00:05:12.913Z,71.41
2017-11-27T00:05:53.831Z,72.35
2017-11-27T00:06:34.238Z,71.97
2017-11-27T00:07:15.629Z,72.55
2017-11-27T00:07:56.136Z,72.55
2017-11-27T00:08:36.799Z,73.02
2017-11-27T00:09:18.147Z,73.11
2017-11-27T00:09:58.642Z,73.02
2017-11-27T00:10:39.012Z,72.92
2017-11-27T00:11:19.506Z,72.83
2017-11-27T00:11:59.867Z,73.11
2017-11-27T00:12:40.817Z,72.74
2017-11-27T00:13:22.344Z,72.55
2017-11-27T00:14:03.285Z,73.21
2017-11-27T00:16:19.990Z,72.07
2017-11-27T00:17:05.492Z,72.26
2017-11-27T00:17:46.112Z,71.97
2017-11-27T00:18:26.598Z,72.64
2017-11-27T00:19:06.982Z,72.35
2017-11-27T00:19:47.721Z,72.45
2017-11-27T00:20:28.070Z,72.35
2017-11-27T00:21:08.655Z,72.55
2017-11-27T00:21:49.172Z,71.78
2017-11-27T00:22:30.020Z,71.5
2017-11-27T00:23:10.711Z,72.26
2017-11-27T00:23:51.806Z,72.26
2017-11-27T00:24:32.957Z,72.55
2017-11-27T00:25:13.616Z,72.83
2017-11-27T00:25:55.355Z,72.45
2017-11-27T00:26:35.950Z,72.35
2017-11-27T00:27:16.451Z,73.21
2017-11-27T00:27:57.435Z,72.83
2017-11-27T00:28:38.479Z,73.11
2017-11-27T00:29:18.835Z,72.55
2017-11-27T00:29:59.353Z,73.02
2017-11-27T00:30:40.778Z,72.92
2017-11-27T00:31:21.238Z,72.74
2017-11-27T00:32:01.745Z,72.35
2017-11-27T00:32:44.721Z,72.64
2017-11-27T00:33:26.088Z,72.45
2017-11-27T00:34:06.781Z,72.35
2017-11-27T00:34:47.415Z,72.45
2017-11-27T00:35:28.812Z,72.92
2017-11-27T00:36:09.271Z,72.64
2017-11-27T00:36:49.722Z,72.07
2017-11-27T00:37:30.140Z,71.5
2017-11-27T00:38:10.573Z,71.97
2017-11-27T00:38:51.410Z,71.69
2017-11-27T00:39:32.660Z,71.59
2017-11-27T00:40:13.113Z,72.64
2017-11-27T00:40:54.048Z,72.55
2017-11-27T00:41:34.395Z,72.26
2017-11-27T00:42:14.796Z,72.55
2017-11-27T00:42:55.962Z,73.02
2017-11-27T00:43:36.338Z,72.92
2017-11-27T00:44:16.743Z,73.02
2017-11-27T00:44:57.149Z,73.69
2017-11-27T00:45:38.016Z,73.78
2017-11-27T00:46:18.931Z,73.02
2017-11-27T00:46:59.342Z,72.16
2017-11-27T00:47:39.961Z,72.35
2017-11-27T00:48:23.245Z,71.59
2017-11-27T00:49:04.717Z,71.88
2017-11-27T00:49:45.427Z,71.69
2017-11-27T00:50:25.826Z,71.69
2017-11-27T00:51:06.526Z,71.69
2017-11-27T00:51:46.844Z,71.78
2017-11-27T00:52:27.228Z,72.07
2017-11-27T00:53:07.703Z,72.26
2017-11-27T00:53:48.084Z,72.07
2017-11-27T00:54:28.463Z,72.92
2017-11-27T00:55:09.619Z,72.64
2017-11-27T00:55:50.198Z,73.11
2017-11-27T00:56:30.579Z,72.92
2017-11-27T00:57:11.418Z,73.02
2017-11-27T00:57:52.162Z,72.74
2017-11-27T00:58:32.593Z,72.64
2017-11-27T00:59:12.998Z,72.83
2017-11-27T00:59:53.708Z,72.64
2017-11-27T01:00:34.030Z,73.02
2017-11-27T01:01:14.531Z,73.21
2017-11-27T01:01:55.038Z,72.92
2017-11-27T01:02:35.543Z,72.92
2017-11-27T01:03:15.942Z,72.45
2017-11-27T01:03:56.668Z,72.64
2017-11-27T01:04:37.333Z,72.83
2017-11-27T01:05:17.672Z,72.55
2017-11-27T01:05:59.605Z,73.11
2017-11-27T01:06:39.970Z,72.83
2017-11-27T01:07:20.772Z,72.83
2017-11-27T01:08:00.969Z,72.83
2017-11-27T01:08:41.435Z,73.3
2017-11-27T01:09:21.781Z,73.4
2017-11-27T01:10:02.181Z,72.64
2017-11-27T01:10:42.741Z,72.39
2017-11-27T01:11:23.082Z,72.86
2017-11-27T01:12:03.687Z,72.39
2017-11-27T01:12:44.294Z,72.77
2017-11-27T01:13:24.646Z,71.12
2017-11-27T01:14:05.094Z,71.69
2017-11-27T01:14:45.428Z,72.83
2017-11-27T01:15:25.873Z,72.83
2017-11-27T01:16:06.333Z,72.83
2017-11-27T01:16:46.772Z,73.11
2017-11-27T01:17:27.176Z,73.21
2017-11-27T01:18:07.608Z,72.35
2017-11-27T01:18:48.303Z,72.07
2017-11-27T01:19:28.386Z,72.92
2017-11-27T01:20:08.855Z,73.02
2017-11-27T01:20:49.386Z,73.11
2017-11-27T01:21:29.703Z,72.86
2017-11-27T01:22:10.087Z,73.06
2017-11-27T01:22:50.473Z,73.21
2017-11-27T01:23:30.875Z,72.55
2017-11-27T01:24:11.419Z,72.49
2017-11-27T01:24:51.782Z,72.26
2017-11-27T01:25:32.289Z,72.35
2017-11-27T01:26:12.668Z,72.74
2017-11-27T01:26:53.074Z,72.35
2017-11-27T01:27:33.494Z,72.55
2017-11-27T01:28:13.908Z,73.02
2017-11-27T01:28:54.316Z,73.21
2017-11-27T01:29:34.711Z,72.83
2017-11-27T01:30:15.177Z,72.35
2017-11-27T01:30:55.516Z,72.55
2017-11-27T01:31:36.053Z,72.55
2017-11-27T01:32:16.300Z,73.02
2017-11-27T01:32:56.702Z,72.92
2017-11-27T01:33:37.078Z,72.92
2017-11-27T01:34:17.660Z,72.45
2017-11-27T01:34:58.167Z,72.45
2017-11-27T01:35:38.520Z,72.35
2017-11-27T01:36:18.883Z,72.55
2017-11-27T01:36:59.312Z,72.26
2017-11-27T01:37:39.683Z,72.35
2017-11-27T01:38:20.307Z,72.64
2017-11-27T01:39:00.709Z,72.16
2017-11-27T01:39:41.097Z,72.16
2017-11-27T01:40:21.544Z,71.97
2017-11-27T01:41:01.917Z,72.64
2017-11-27T01:41:42.337Z,72.45
2017-11-27T01:42:22.784Z,72.07
2017-11-27T01:43:03.210Z,72.07
2017-11-27T01:43:43.606Z,72.64
2017-11-27T01:44:24.031Z,71.69
2017-11-27T01:45:04.385Z,72.16
2017-11-27T01:45:44.811Z,72.45
2017-11-27T01:46:25.230Z,72.55
2017-11-27T01:47:05.737Z,72.45
2017-11-27T01:47:46.158Z,72.07
2017-11-27T01:48:26.925Z,72.35
2017-11-27T01:49:07.294Z,71.97
2017-11-27T01:49:47.791Z,72.35
2017-11-27T01:50:28.578Z,72.07
2017-11-27T01:51:08.997Z,71.97
2017-11-27T01:51:49.579Z,72.77
2017-11-27T01:52:30.239Z,72.16
2017-11-27T01:53:10.792Z,71.78
2017-11-27T01:53:51.538Z,71.82
2017-11-27T01:54:32.000Z,71.34
2017-11-27T01:55:12.333Z,71.69
2017-11-27T01:55:52.811Z,71.72
2017-11-27T01:56:33.194Z,70.64
2017-11-27T01:57:14.116Z,71.69
2017-11-27T01:57:54.600Z,71.34
2017-11-27T01:58:35.176Z,71.44
2017-11-27T01:59:16.199Z,71.91
2017-11-27T01:59:56.749Z,70.64
2017-11-27T02:00:37.283Z,71.63
2017-11-27T02:01:18.184Z,71.31
2017-11-27T02:01:58.408Z,71.25
2017-11-27T02:02:38.864Z,71.25
2017-11-27T02:03:19.282Z,71.63
2017-11-27T02:03:59.983Z,71.59
2017-11-27T02:04:43.919Z,71.34
2017-11-27T02:05:24.391Z,70.58
2017-11-27T02:06:05.532Z,70.01
2017-11-27T02:06:46.943Z,69.73
2017-11-27T02:07:27.381Z,69.92
2017-11-27T02:08:07.867Z,70.68
2017-11-27T02:08:48.338Z,70.87
2017-11-27T02:09:28.817Z,71.06
2017-11-27T02:10:09.261Z,69.92
2017-11-27T02:10:50.232Z,69.79
2017-11-27T02:11:30.302Z,70.26
2017-11-27T02:12:11.042Z,70.87
2017-11-27T02:12:51.723Z,71.22
2017-11-27T02:13:32.842Z,71.59
2017-11-27T02:14:13.227Z,71.41
2017-11-27T02:14:53.965Z,70.74
2017-11-27T02:15:34.383Z,71.02
2017-11-27T02:16:14.838Z,70.64
2017-11-27T02:16:57.366Z,70.36
2017-11-27T02:17:38.572Z,70.54
2017-11-27T02:18:18.930Z,70.83
2017-11-27T02:18:59.413Z,70.74
2017-11-27T02:19:40.630Z,71.59
2017-11-27T02:20:21.079Z,70.83
2017-11-27T02:21:03.145Z,70.64
2017-11-27T02:21:43.973Z,70.36
2017-11-27T02:22:24.441Z,70.64
2017-11-27T02:23:05.070Z,70.26
2017-11-27T02:23:45.505Z,70.54
2017-11-27T02:24:25.897Z,70.93
2017-11-27T02:25:06.429Z,70.74
2017-11-27T02:25:47.249Z,70.64
2017-11-27T02:26:27.544Z,71.59
2017-11-27T02:27:08.237Z,71.22
2017-11-27T02:27:48.651Z,70.54
2017-11-27T02:28:29.499Z,70.64
2017-11-27T02:29:09.920Z,70.83
2017-11-27T02:29:51.322Z,71.31
2017-11-27T02:30:31.705Z,70.54
2017-11-27T02:31:12.289Z,70.64
2017-11-27T02:31:52.673Z,70.64
2017-11-27T02:32:33.188Z,70.83
2017-11-27T02:33:13.532Z,71.31
2017-11-27T02:33:54.740Z,71.02
2017-11-27T02:34:35.117Z,70.36
2017-11-27T02:35:15.497Z,70.83
2017-11-27T02:35:56.473Z,70.64
2017-11-27T02:36:36.922Z,70.36
2017-11-27T02:37:17.665Z,70.26
2017-11-27T02:37:58.449Z,70.64
2017-11-27T02:38:38.883Z,70.83
2017-11-27T02:39:19.614Z,71.5
2017-11-27T02:40:00.088Z,71.41
2017-11-27T02:40:40.813Z,70.83
2017-11-27T02:41:21.217Z,70.64
2017-11-27T02:42:01.769Z,69.88
2017-11-27T02:42:42.179Z,70.07
2017-11-27T02:43:22.570Z,70.36
2017-11-27T02:44:03.054Z,71.22
2017-11-27T02:44:43.441Z,70.64
2017-11-27T02:45:23.873Z,70.07
2017-11-27T02:46:04.416Z,69.98
2017-11-27T02:46:44.894Z,69.98
2017-11-27T02:47:25.212Z,69.88
2017-11-27T02:48:06.024Z,70.45
2017-11-27T02:48:46.454Z,69.98
2017-11-27T02:49:26.877Z,70.64
2017-11-27T02:50:07.233Z,69.88
2017-11-27T02:50:47.693Z,70.07
2017-11-27T02:51:29.081Z,70.36
2017-11-27T02:52:08.760Z,70.54
2017-11-27T02:52:49.106Z,70.54
2017-11-27T02:53:30.364Z,70.54
2017-11-27T02:54:10.615Z,70.83
2017-11-27T02:54:51.020Z,70.36
2017-11-27T02:55:31.420Z,69.69
2017-11-27T02:56:12.593Z,70.64
2017-11-27T02:56:52.546Z,69.98
2017-11-27T02:57:32.822Z,70.54
2017-11-27T02:58:13.167Z,70.54
2017-11-27T02:58:53.536Z,70.64
2017-11-27T02:59:33.961Z,70.74
2017-11-27T03:00:14.338Z,69.88
2017-11-27T03:00:54.775Z,70.07
2017-11-27T03:01:35.121Z,69.88
2017-11-27T03:02:15.572Z,70.07
2017-11-27T03:02:55.986Z,70.07
2017-11-27T03:03:36.396Z,70.83
2017-11-27T03:04:16.792Z,70.83
2017-11-27T03:04:57.738Z,71.02
2017-11-27T03:05:38.919Z,70.83
2017-11-27T03:06:19.815Z,70.74
2017-11-27T03:06:59.741Z,69.88
2017-11-27T03:07:40.422Z,71.02
2017-11-27T03:08:20.738Z,70.74
2017-11-27T03:09:01.203Z,70.45
2017-11-27T03:09:41.507Z,70.36
2017-11-27T03:10:22.397Z,70.64
2017-11-27T03:11:04.175Z,70.54
2017-11-27T03:11:44.826Z,70.54
2017-11-27T03:12:25.276Z,72.07
2017-11-27T03:13:06.231Z,71.5
2017-11-27T03:13:46.485Z,70.17
2017-11-27T03:14:26.859Z,70.83
2017-11-27T03:15:07.434Z,71.37
2017-11-27T03:15:48.161Z,71.75
2017-11-27T03:16:28.721Z,71.88
2017-11-27T03:17:09.127Z,71.5
2017-11-27T03:17:49.486Z,71.46
2017-11-27T03:18:29.897Z,71.97
2017-11-27T03:19:10.340Z,71.37
2017-11-27T03:19:50.827Z,71.94
2017-11-27T03:20:31.233Z,72.16
2017-11-27T03:21:11.558Z,71.88
2017-11-27T03:21:52.031Z,70.79
2017-11-27T03:22:32.434Z,71.18
2017-11-27T03:23:13.100Z,72.22
2017-11-27T03:23:53.376Z,72.32
2017-11-27T03:24:33.829Z,72.32
2017-11-27T03:25:14.250Z,72.6
2017-11-27T03:25:54.595Z,72.03
2017-11-27T03:26:34.959Z,72.79
2017-11-27T03:27:15.364Z,73.18
2017-11-27T03:27:55.816Z,72.13
2017-11-27T03:28:36.165Z,71.84
2017-11-27T03:29:16.615Z,72.32
2017-11-27T03:29:57.096Z,72.79
2017-11-27T03:30:37.614Z,72.6
2017-11-27T03:31:18.374Z,73.08
2017-11-27T03:31:58.768Z,72.99
2017-11-27T03:32:39.229Z,73.46
2017-11-27T03:33:19.650Z,73.36
2017-11-27T03:34:00.205Z,72.7
2017-11-27T03:34:40.565Z,72.79
2017-11-27T03:35:20.990Z,72.89
2017-11-27T03:36:01.923Z,72.79
2017-11-27T03:36:42.313Z,73.08
2017-11-27T03:37:23.000Z,73.27
2017-11-27T03:38:03.328Z,73.52
2017-11-27T03:38:43.763Z,73.65
2017-11-27T03:39:24.553Z,73.08
2017-11-27T03:40:04.845Z,73.36
2017-11-27T03:40:45.336Z,74.22
2017-11-27T03:41:25.750Z,73.36
2017-11-27T03:42:06.175Z,73.46
2017-11-27T03:42:46.660Z,74.12
2017-11-27T03:43:27.035Z,74.6
2017-11-27T03:44:07.403Z,73.93
2017-11-27T03:44:47.848Z,73.93
2017-11-27T03:45:28.313Z,74.03
2017-11-27T03:46:08.742Z,73.84
2017-11-27T03:46:49.228Z,73.61
2017-11-27T03:47:29.680Z,73.52
2017-11-27T03:48:10.080Z,74.27
2017-11-27T03:48:50.543Z,74.56
2017-11-27T03:49:31.281Z,74.75
2017-11-27T03:50:11.472Z,74.37
2017-11-27T03:50:52.000Z,74.75
2017-11-27T03:51:32.413Z,74.75
2017-11-27T03:52:12.901Z,74.94
2017-11-27T03:52:53.201Z,74.41
2017-11-27T03:53:33.702Z,74.12
2017-11-27T03:54:14.202Z,74.03
2017-11-27T03:54:54.512Z,74.31
2017-11-27T03:55:35.015Z,74.41
2017-11-27T03:56:15.414Z,74.6
2017-11-27T03:56:55.788Z,74.22
2017-11-27T03:57:36.245Z,73.93
2017-11-27T03:58:16.668Z,74.22
2017-11-27T03:58:57.158Z,74.88
2017-11-27T03:59:37.418Z,74.03
2017-11-27T04:00:17.847Z,74.27
2017-11-27T04:00:58.276Z,74.6
2017-11-27T04:01:38.685Z,74.31
2017-11-27T04:41:22.515Z,76.42
2017-11-27T04:42:04.173Z,76.84
2017-11-27T04:42:45.596Z,77.84
2017-11-27T04:43:27.080Z,76.71
2017-11-27T04:44:07.641Z,77.09
2017-11-27T04:44:48.159Z,77.84
2017-11-27T04:45:29.005Z,77.66
2017-11-27T04:46:09.674Z,77.89
2017-11-27T04:46:50.056Z,77.41
2017-11-27T04:47:31.601Z,77.03
2017-11-27T04:48:12.022Z,77.22
2017-11-27T04:48:52.449Z,77.79
2017-11-27T04:49:32.917Z,77.51
2017-11-27T04:50:13.361Z,77.22
2017-11-27T04:50:53.738Z,78.08
2017-11-27T04:51:34.119Z,76.75
2017-11-27T04:52:14.539Z,76.93
2017-11-27T04:52:55.840Z,77.12
2017-11-27T04:53:36.589Z,76.75
2017-11-27T04:54:17.307Z,77.31
2017-11-27T04:54:57.761Z,76.46
2017-11-27T04:55:38.514Z,77.22
2017-11-27T04:56:19.087Z,75.89
2017-11-27T04:57:00.457Z,75.89
2017-11-27T04:57:41.347Z,76.27
2017-11-27T04:58:21.797Z,76.84
2017-11-27T04:59:02.167Z,77.7
2017-11-27T04:59:42.844Z,76.93
2017-11-27T05:00:27.494Z,75.7
2017-11-27T05:01:07.795Z,76.56
2017-11-27T05:01:48.605Z,76.78
2017-11-27T05:02:28.717Z,76.4
2017-11-27T05:03:09.618Z,76.12
2017-11-27T05:03:50.307Z,74.03
2017-11-27T05:04:31.424Z,73.46
2017-11-27T05:05:11.979Z,74.66
2017-11-27T05:05:52.660Z,75.07
2017-11-27T05:06:33.375Z,74.66
2017-11-27T05:07:14.258Z,75.07
2017-11-27T05:07:54.828Z,75.36
2017-11-27T05:08:35.174Z,75.84
2017-11-27T05:09:16.390Z,74.98
2017-11-27T05:09:56.492Z,74.69
2017-11-27T05:10:37.125Z,74.88
2017-11-27T05:11:18.103Z,74.12
2017-11-27T05:11:58.500Z,73.36
2017-11-27T05:12:39.839Z,72.79
2017-11-27T05:13:20.354Z,73.36
2017-11-27T05:14:00.892Z,73.74
2017-11-27T05:14:41.615Z,73.18
2017-11-27T05:15:23.194Z,73.65
2017-11-27T05:16:03.899Z,73.65
2017-11-27T05:16:44.323Z,74.22
2017-11-27T05:17:24.573Z,74.03
2017-11-27T05:18:05.591Z,74.41
2017-11-27T05:18:46.001Z,74.22
2017-11-27T05:19:26.572Z,73.65
2017-11-27T05:20:07.106Z,73.65
2017-11-27T05:20:47.706Z,73.93
2017-11-27T05:21:28.574Z,73.93
2017-11-27T05:22:09.254Z,72.99
2017-11-27T05:22:49.572Z,73.55
2017-11-27T05:23:30.270Z,74.51
2017-11-27T05:24:12.567Z,74.22
2017-11-27T05:24:52.466Z,74.51
2017-11-27T05:25:33.905Z,74.31
2017-11-27T05:26:14.354Z,72.89
2017-11-27T05:26:54.707Z,73.27
2017-11-27T05:27:36.338Z,73.74
2017-11-27T05:28:16.701Z,74.41
2017-11-27T05:28:58.485Z,73.65
2017-11-27T05:29:39.139Z,74.41
2017-11-27T05:30:19.589Z,74.03
2017-11-27T05:31:00.106Z,73.27
2017-11-27T05:31:41.467Z,73.18
2017-11-27T05:32:22.525Z,74.31
2017-11-27T05:33:03.602Z,75.36
2017-11-27T05:33:47.029Z,74.98
2017-11-27T05:34:28.602Z,72.7
2017-11-27T05:35:09.218Z,73.27
2017-11-27T05:35:49.919Z,74.22
2017-11-27T05:36:32.087Z,74.22
2017-11-27T05:37:13.855Z,74.79
2017-11-27T05:37:54.167Z,74.88
2017-11-27T05:38:35.928Z,74.79
2017-11-27T05:39:16.352Z,75.07
2017-11-27T05:39:56.893Z,74.98
2017-11-27T05:40:37.182Z,74.03
2017-11-27T05:41:17.631Z,74.41
2017-11-27T05:41:58.193Z,73.74
2017-11-27T05:42:38.661Z,74.31
2017-11-27T05:43:20.214Z,73.93
2017-11-27T05:44:00.656Z,72.51
2017-11-27T05:44:41.773Z,73.18
2017-11-27T05:45:23.577Z,72.89
2017-11-27T05:46:04.021Z,72.99
2017-11-27T05:46:44.650Z,73.74
2017-11-27T05:47:25.043Z,73.74
2017-11-27T05:48:05.697Z,72.89
2017-11-27T05:48:47.227Z,72.89
2017-11-27T05:49:29.176Z,72.85
2017-11-27T05:50:09.526Z,73.9
2017-11-27T05:50:50.434Z,74.75
2017-11-27T05:51:31.282Z,76.37
2017-11-27T05:52:12.262Z,76.59
2017-11-27T05:52:53.808Z,74.66
2017-11-27T05:53:34.755Z,74.56
2017-11-27T05:54:16.043Z,75.04
2017-11-27T05:54:57.094Z,75.45
2017-11-27T05:55:37.704Z,74.75
2017-11-27T05:56:18.417Z,74.94
2017-11-27T05:56:59.819Z,74.56
2017-11-27T05:57:40.316Z,75.26
2017-11-27T05:58:21.470Z,74.47
2017-11-27T05:59:01.962Z,74.94
2017-11-27T05:59:43.233Z,75.93
2017-11-27T06:00:24.834Z,75.93
2017-11-27T06:01:07.272Z,76.5
2017-11-27T06:01:47.756Z,74.98
2017-11-27T06:02:28.301Z,74.79
2017-11-27T06:03:09.127Z,74.98
2017-11-27T06:03:49.631Z,74.98
2017-11-27T06:04:34.427Z,73.65
2017-11-27T06:05:15.133Z,72.99
2017-11-27T06:05:55.741Z,73.08
2017-11-27T06:06:36.190Z,73.9
2017-11-27T06:07:16.593Z,73.9
2017-11-27T06:07:57.839Z,76.08
2017-11-27T06:08:39.743Z,76.37
2017-11-27T06:09:19.800Z,76.37
2017-11-27T06:10:01.109Z,75.04
2017-11-27T06:10:41.684Z,75.79
2017-11-27T06:11:22.292Z,75.89
2017-11-27T06:12:03.082Z,75.32
2017-11-27T06:12:43.694Z,75.32
2017-11-27T06:13:24.928Z,74.56
2017-11-27T06:14:06.361Z,74.94
2017-11-27T06:14:46.750Z,75.6
2017-11-27T06:15:27.537Z,74.56
2017-11-27T06:16:08.055Z,74.94
2017-11-27T06:16:48.479Z,74.56
2017-11-27T06:17:29.379Z,76.18
2017-11-27T06:18:10.368Z,77.31
2017-11-27T06:18:50.786Z,75.51
2017-11-27T06:19:31.122Z,75.04
2017-11-27T06:20:13.461Z,75.23
2017-11-27T06:20:54.593Z,76.18
2017-11-27T06:21:35.161Z,75.79
2017-11-27T06:22:15.849Z,75.89
2017-11-27T06:22:56.271Z,76.18
2017-11-27T06:23:36.982Z,76.46
2017-11-27T06:24:18.129Z,76.71
2017-11-27T06:24:58.456Z,76.9
2017-11-27T06:25:39.751Z,77.47
2017-11-27T06:26:20.555Z,77.56
2017-11-27T06:27:01.022Z,78.23
2017-11-27T06:27:41.865Z,77.89
2017-11-27T06:28:22.431Z,77.79
2017-11-27T06:29:02.806Z,77.03
2017-11-27T06:29:43.707Z,76.46
2017-11-27T06:30:24.575Z,76.18
2017-11-27T06:31:05.133Z,77.22
2017-11-27T06:31:45.592Z,76.93
2017-11-27T06:32:26.485Z,77.22
2017-11-27T06:33:07.856Z,77.37
2017-11-27T06:33:48.397Z,76.93
2017-11-27T06:34:29.362Z,77.7
2017-11-27T06:35:10.159Z,77.37
2017-11-27T06:35:51.218Z,77.7
2017-11-27T06:36:31.624Z,77.79
2017-11-27T06:37:12.126Z,76.65
2017-11-27T06:37:53.215Z,76.84
2017-11-27T06:38:33.295Z,77.7
2017-11-27T06:39:13.757Z,77.7
2017-11-27T06:39:54.535Z,78.83
2017-11-27T06:40:35.056Z,78.93
2017-11-27T06:41:16.005Z,78.93
2017-11-27T06:41:57.911Z,78.27
2017-11-27T06:42:40.018Z,77.7
2017-11-27T06:43:20.482Z,77.12
2017-11-27T06:44:01.475Z,78.4
2017-11-27T06:44:42.086Z,79.35
2017-11-27T06:45:23.085Z,78.5
2017-11-27T06:46:04.238Z,77.55
2017-11-27T06:48:42.531Z,75.93
2017-11-27T06:51:35.028Z,76.03
2017-11-27T06:54:04.331Z,78.5
2017-11-27T06:54:43.834Z,78.11
2017-11-27T06:55:25.603Z,77.26
2017-11-27T06:56:09.618Z,78.3
2017-11-27T06:56:56.029Z,79.06
2017-11-27T06:57:38.062Z,77.83
2017-11-27T06:58:18.927Z,77.26
2017-11-27T06:58:59.686Z,77.73
2017-11-27T07:02:09.802Z,78.88
2017-11-27T07:03:00.544Z,78.78
2017-11-27T07:03:33.321Z,78.5
2017-11-27T07:04:13.983Z,77.26
2017-11-27T07:04:54.469Z,77.92
2017-11-27T07:05:35.018Z,78.5
2017-11-27T07:06:15.663Z,79.06
2017-11-27T07:06:56.222Z,79.16
2017-11-27T07:07:37.044Z,77.26
2017-11-27T07:08:17.348Z,76.59
2017-11-27T07:08:58.073Z,76.78
2017-11-27T07:09:40.161Z,78.11
2017-11-27T07:10:20.728Z,78.3
2017-11-27T07:11:04.148Z,78.59
2017-11-27T07:11:44.678Z,77.73
2017-11-27T07:12:25.201Z,78.02
2017-11-27T07:13:05.665Z,77.55
2017-11-27T07:13:46.025Z,77.83
2017-11-27T07:14:26.655Z,77.83
2017-11-27T07:15:08.144Z,78.63
2017-11-27T07:15:48.863Z,77.01
2017-11-27T07:16:29.421Z,77.2
2017-11-27T07:17:09.893Z,78.63
2017-11-27T07:17:51.171Z,77.77
2017-11-27T07:18:31.483Z,77.97
2017-11-27T07:19:11.970Z,77.49
2017-11-27T07:19:52.392Z,77.01
2017-11-27T07:20:33.389Z,76.21
2017-11-27T07:21:14.698Z,76.4
2017-11-27T07:21:55.390Z,77.73
2017-11-27T07:22:36.734Z,77.73
2017-11-27T07:23:17.138Z,77.92
2017-11-27T07:23:57.744Z,77.83
2017-11-27T07:24:38.598Z,78.44
2017-11-27T07:25:19.343Z,76.78
2017-11-27T07:25:59.894Z,77.68
2017-11-27T07:26:41.635Z,78.44
2017-11-27T07:27:22.276Z,77.11
2017-11-27T07:28:02.631Z,77.39
2017-11-27T07:28:45.530Z,77.49
2017-11-27T07:29:26.982Z,76.54
2017-11-27T07:30:07.993Z,75.21
2017-11-27T07:30:50.101Z,74.92
2017-11-27T07:31:29.481Z,74.82
2017-11-27T07:32:10.191Z,76.25
2017-11-27T07:32:51.291Z,76.21
2017-11-27T07:33:31.736Z,75.84
2017-11-27T07:34:12.262Z,77.17
2017-11-27T07:34:52.884Z,76.88
2017-11-27T07:35:33.485Z,78.3
2017-11-27T07:36:14.205Z,78.59
2017-11-27T07:36:54.905Z,77.26
2017-11-27T07:37:35.688Z,77.17
2017-11-27T07:38:18.862Z,77.64
2017-11-27T07:38:58.844Z,78.4
2017-11-27T07:39:38.984Z,78.5
2017-11-27T07:40:19.862Z,77.07
2017-11-27T07:41:01.041Z,76.12
2017-11-27T07:41:41.489Z,77.36
2017-11-27T07:42:22.842Z,76.4
2017-11-27T07:43:03.841Z,76.5
2017-11-27T07:43:44.392Z,77.26
2017-11-27T07:44:25.556Z,77.55
2017-11-27T07:45:06.220Z,76.78
2017-11-27T07:45:46.850Z,78.11
2017-11-27T07:46:28.709Z,78.5
2017-11-27T07:47:08.469Z,77.45
2017-11-27T07:47:49.225Z,77.26
2017-11-27T07:48:30.893Z,77.45
2017-11-27T07:49:12.124Z,78.02
2017-11-27T07:49:53.231Z,77.92
2017-11-27T07:50:35.337Z,77.73
2017-11-27T07:51:16.360Z,77.92
2017-11-27T07:51:57.952Z,78.4
2017-11-27T07:52:38.832Z,78.02
2017-11-27T07:53:20.385Z,78.78
2017-11-27T07:54:02.086Z,78.88
2017-11-27T07:54:43.239Z,78.11
2017-11-27T07:55:24.305Z,77.92
2017-11-27T07:56:05.944Z,78.21
2017-11-27T07:56:46.887Z,78.44
2017-11-27T07:57:27.552Z,79.3
2017-11-27T07:58:10.211Z,78.53
2017-11-27T07:58:50.144Z,77.77
2017-11-27T07:59:31.978Z,77.39
2017-11-27T08:00:13.954Z,76.44
2017-11-27T08:00:54.262Z,76.16
2017-11-27T08:01:35.556Z,76.25
2017-11-27T08:02:16.368Z,76.92
2017-11-27T08:02:57.731Z,76.82
2017-11-27T08:03:38.567Z,77.39
2017-11-27T08:04:18.983Z,77.2
2017-11-27T08:05:01.108Z,77.49
2017-11-27T08:05:44.199Z,76.54
2017-11-27T08:06:25.593Z,76.06
2017-11-27T08:07:06.360Z,77.97
2017-11-27T08:07:47.237Z,77.87
2017-11-27T08:08:28.321Z,77.3
2017-11-27T08:09:09.617Z,77.39
2017-11-27T08:09:50.523Z,77.87
2017-11-27T08:10:31.385Z,77.97
2017-11-27T08:11:12.183Z,78.63
2017-11-27T08:11:52.903Z,78.44
2017-11-27T08:12:33.536Z,79.3
2017-11-27T08:13:14.131Z,78.34
2017-11-27T08:17:36.167Z,76.48
2017-11-27T08:18:41.467Z,76.73
2017-11-27T08:24:37.941Z,76.82
2017-11-27T08:25:18.881Z,76.92
2017-11-27T08:25:59.248Z,77.3
2017-11-27T08:26:40.765Z,76.48
2017-11-27T08:27:20.422Z,76.48
2017-11-27T08:28:03.821Z,77.05
2017-11-27T08:28:43.783Z,76.01
2017-11-27T08:29:24.209Z,75.96
2017-11-27T08:30:04.776Z,77.68
2017-11-27T08:30:45.146Z,77.2
2017-11-27T08:31:25.560Z,76.54
2017-11-27T08:32:06.004Z,77.39
2017-11-27T08:32:46.638Z,77.87
2017-11-27T08:33:27.036Z,77.58
2017-11-27T08:34:07.509Z,77.68
2017-11-27T08:34:48.166Z,78.63
2017-11-27T08:35:28.644Z,77.39
2017-11-27T08:36:09.260Z,77.97
2017-11-27T08:36:49.879Z,77.68
2017-11-27T08:37:30.210Z,77.77
2017-11-27T08:38:10.773Z,77.68
2017-11-27T08:38:51.126Z,78.53
2017-11-27T08:39:31.525Z,78.25
2017-11-27T08:40:11.950Z,78.57
2017-11-27T08:40:52.369Z,77.81
2017-11-27T08:41:32.734Z,77.05
2017-11-27T08:42:13.169Z,76.39
2017-11-27T08:42:53.727Z,77.53
2017-11-27T08:43:34.206Z,76.76
2017-11-27T08:44:14.611Z,77.15
2017-11-27T08:44:55.113Z,76.2
2017-11-27T08:45:35.525Z,74.96
2017-11-27T08:46:15.822Z,75.34
2017-11-27T08:46:56.265Z,75.43
2017-11-27T08:47:36.681Z,76.2
2017-11-27T08:48:17.091Z,76.39
2017-11-27T08:48:57.609Z,76.48
2017-11-27T08:49:37.979Z,75.81
2017-11-27T08:50:18.412Z,76.57
2017-11-27T08:53:16.508Z,76.01
2017-11-27T08:53:57.009Z,76.01
2017-11-27T08:54:37.602Z,75.15
2017-11-27T08:55:18.195Z,75.24
2017-11-27T08:55:58.494Z,74.87
2017-11-27T08:56:39.007Z,74.58
2017-11-27T08:57:19.354Z,75.53
2017-11-27T08:58:01.825Z,76.76
2017-11-27T08:58:42.581Z,76.67
2017-11-27T08:59:22.953Z,77.19
2017-11-27T09:00:03.339Z,76.23
2017-11-27T09:03:35.424Z,74.9
2017-11-27T09:11:42.356Z,75.47
2017-11-27T09:12:23.363Z,75.28
2017-11-27T09:13:03.727Z,74.99
2017-11-27T09:13:44.654Z,76.42
2017-11-27T09:14:25.265Z,76.23
2017-11-27T09:15:05.725Z,75.57
2017-11-27T09:15:46.446Z,75.43
2017-11-27T09:16:26.650Z,76.1
2017-11-27T09:17:07.085Z,76.29
2017-11-27T09:17:47.629Z,76.86
2017-11-27T09:18:28.186Z,77.15
2017-11-27T09:19:08.862Z,76.86
2017-11-27T09:19:49.391Z,76.96
2017-11-27T09:20:29.777Z,77.24
2017-11-27T09:21:12.785Z,77.34
2017-11-27T09:21:53.237Z,77.34
2017-11-27T09:22:33.804Z,76.86
2017-11-27T09:23:14.342Z,77.53
2017-11-27T09:23:54.693Z,77.81
2017-11-27T09:24:35.266Z,77.15
2017-11-27T09:25:15.689Z,76.81
2017-11-27T09:25:56.127Z,77.05
2017-11-27T09:26:36.588Z,77
2017-11-27T09:30:13.032Z,77
2017-11-27T09:30:55.632Z,76.1
2017-11-27T09:31:36.082Z,76.57
2017-11-27T09:32:16.788Z,76.1
2017-11-27T09:33:01.273Z,77.43
2017-11-27T09:33:41.647Z,78
2017-11-27T09:35:57.740Z,76.39
2017-11-27T09:36:38.719Z,77.81
2017-11-27T09:37:19.349Z,77.34
2017-11-27T09:38:00.288Z,76.96
2017-11-27T09:38:41.362Z,77.53
2017-11-27T09:39:21.356Z,78.38
2017-11-27T09:40:01.773Z,78.48
2017-11-27T09:40:42.231Z,78
2017-11-27T09:41:22.687Z,78.1
2017-11-27T09:42:03.478Z,79.05
2017-11-27T09:42:44.784Z,78.29
2017-11-27T09:43:25.549Z,77.81
2017-11-27T09:44:06.022Z,77.62
2017-11-27T09:44:46.424Z,77.91
2017-11-27T09:45:26.938Z,77.62
2017-11-27T09:46:07.381Z,79.14
2017-11-27T09:46:47.766Z,79.14
2017-11-27T09:47:28.333Z,79.05
2017-11-27T09:48:08.732Z,79.05
2017-11-27T09:48:49.214Z,79.2
2017-11-27T09:49:29.569Z,79.33
2017-11-27T09:50:10.168Z,79.24
2017-11-27T09:50:50.740Z,79.52
2017-11-27T09:51:31.195Z,79.43
2017-11-27T09:52:11.849Z,77.91
2017-11-27T09:52:52.245Z,78.67
2017-11-27T09:53:32.903Z,80.29
2017-11-27T09:54:13.265Z,80.19
2017-11-27T09:54:53.684Z,79.43
2017-11-27T09:55:34.258Z,79.43
2017-11-27T09:56:14.695Z,80.29
2017-11-27T09:56:55.107Z,78.86
2017-11-27T09:57:35.486Z,78.29
2017-11-27T09:58:16.026Z,78.67
2017-11-27T09:58:56.440Z,79.75
2017-11-27T09:59:36.798Z,78.52
2017-11-27T10:00:17.266Z,78.38
2017-11-27T10:00:57.752Z,79.09
2017-11-27T10:01:38.194Z,78.14